sensor_id;sensor_type;location;lat;lon;timestamp;pressure;altitude;pressure_sealevel;temperature;humidity
66742;BME280;53654;54.152;19.432;2023-06-22T00:01:29;101582.75;;;22.23;80.08
66742;BME280;53654;54.152;19.432;2023-06-22T00:03:57;101581.70;;;22.18;80.93
66742;BME280;53654;54.152;19.432;2023-06-22T00:06:26;101580.86;;;22.13;81.59
66742;BME280;53654;54.152;19.432;2023-06-22T00:08:54;101581.98;;;22.08;82.20
66742;BME280;53654;54.152;19.432;2023-06-22T00:11:22;101581.49;;;22.03;83.08
66742;BME280;53654;54.152;19.432;2023-06-22T00:13:51;101584.03;;;21.97;83.62
66742;BME280;53654;54.152;19.432;2023-06-22T00:16:19;101582.44;;;21.93;83.93
66742;BME280;53654;54.152;19.432;2023-06-22T00:18:47;101587.35;;;21.90;84.29
66742;BME280;53654;54.152;19.432;2023-06-22T00:21:16;101590.95;;;21.84;84.01
66742;BME280;53654;54.152;19.432;2023-06-22T00:23:44;101594.44;;;21.78;83.25
66742;BME280;53654;54.152;19.432;2023-06-22T00:26:13;101597.91;;;21.71;82.91
66742;BME280;53654;54.152;19.432;2023-06-22T00:28:41;101597.95;;;21.66;82.72
66742;BME280;53654;54.152;19.432;2023-06-22T00:31:09;101595.49;;;21.61;82.15
66742;BME280;53654;54.152;19.432;2023-06-22T00:33:38;101595.83;;;21.57;81.92
66742;BME280;53654;54.152;19.432;2023-06-22T00:36:06;101597.58;;;21.53;81.81
66742;BME280;53654;54.152;19.432;2023-06-22T00:38:40;101604.80;;;21.50;81.63
66742;BME280;53654;54.152;19.432;2023-06-22T00:41:09;101601.47;;;21.45;81.28
66742;BME280;53654;54.152;19.432;2023-06-22T00:43:37;101603.31;;;21.43;81.04
66742;BME280;53654;54.152;19.432;2023-06-22T00:46:05;101595.66;;;21.39;80.78
66742;BME280;53654;54.152;19.432;2023-06-22T00:48:33;101592.61;;;21.35;80.42
66742;BME280;53654;54.152;19.432;2023-06-22T00:51:02;101590.99;;;21.32;80.24
66742;BME280;53654;54.152;19.432;2023-06-22T00:53:30;101587.61;;;21.28;80.17
66742;BME280;53654;54.152;19.432;2023-06-22T00:56:04;101585.27;;;21.24;80.17
66742;BME280;53654;54.152;19.432;2023-06-22T00:58:36;101583.48;;;21.19;80.15
66742;BME280;53654;54.152;19.432;2023-06-22T01:01:04;101588.21;;;21.16;80.18
66742;BME280;53654;54.152;19.432;2023-06-22T01:03:33;101588.66;;;21.14;80.36
66742;BME280;53654;54.152;19.432;2023-06-22T01:06:09;101591.24;;;21.11;80.31
66742;BME280;53654;54.152;19.432;2023-06-22T01:08:46;101587.17;;;21.06;80.46
66742;BME280;53654;54.152;19.432;2023-06-22T01:11:28;101586.33;;;21.01;80.36
66742;BME280;53654;54.152;19.432;2023-06-22T01:14:10;101588.19;;;20.94;80.22
66742;BME280;53654;54.152;19.432;2023-06-22T01:16:41;101592.16;;;20.87;80.43
66742;BME280;53654;54.152;19.432;2023-06-22T01:21:55;101591.12;;;20.76;80.74
66742;BME280;53654;54.152;19.432;2023-06-22T01:24:33;101583.21;;;20.70;80.95
66742;BME280;53654;54.152;19.432;2023-06-22T01:27:31;101588.38;;;20.65;81.04
66742;BME280;53654;54.152;19.432;2023-06-22T01:30:02;101595.02;;;20.57;81.18
66742;BME280;53654;54.152;19.432;2023-06-22T01:32:35;101600.52;;;20.53;81.45
66742;BME280;53654;54.152;19.432;2023-06-22T01:35:07;101602.58;;;20.49;81.58
66742;BME280;53654;54.152;19.432;2023-06-22T01:37:37;101602.39;;;20.45;81.57
66742;BME280;53654;54.152;19.432;2023-06-22T01:40:08;101606.25;;;20.41;81.61
66742;BME280;53654;54.152;19.432;2023-06-22T01:42:37;101609.42;;;20.36;82.09
66742;BME280;53654;54.152;19.432;2023-06-22T01:45:08;101615.08;;;20.31;82.08
66742;BME280;53654;54.152;19.432;2023-06-22T01:47:39;101616.88;;;20.25;82.40
66742;BME280;53654;54.152;19.432;2023-06-22T01:50:10;101618.49;;;20.19;82.60
66742;BME280;53654;54.152;19.432;2023-06-22T01:52:38;101617.26;;;20.14;82.97
66742;BME280;53654;54.152;19.432;2023-06-22T01:55:07;101615.48;;;20.09;83.19
66742;BME280;53654;54.152;19.432;2023-06-22T01:57:36;101616.29;;;20.06;83.22
66742;BME280;53654;54.152;19.432;2023-06-22T02:00:11;101618.17;;;20.03;83.48
66742;BME280;53654;54.152;19.432;2023-06-22T02:03:01;101619.39;;;19.98;83.43
66742;BME280;53654;54.152;19.432;2023-06-22T02:05:38;101626.50;;;19.92;83.74
66742;BME280;53654;54.152;19.432;2023-06-22T02:08:13;101622.95;;;19.88;84.05
66742;BME280;53654;54.152;19.432;2023-06-22T02:10:46;101618.84;;;19.83;84.15
66742;BME280;53654;54.152;19.432;2023-06-22T02:13:17;101622.29;;;19.81;84.31
66742;BME280;53654;54.152;19.432;2023-06-22T02:15:46;101625.70;;;19.79;84.46
66742;BME280;53654;54.152;19.432;2023-06-22T02:18:15;101622.77;;;19.78;84.53
66742;BME280;53654;54.152;19.432;2023-06-22T02:20:43;101625.48;;;19.75;84.34
66742;BME280;53654;54.152;19.432;2023-06-22T02:23:11;101628.95;;;19.72;84.50
66742;BME280;53654;54.152;19.432;2023-06-22T02:25:39;101627.63;;;19.69;84.69
66742;BME280;53654;54.152;19.432;2023-06-22T02:28:08;101624.72;;;19.66;84.87
66742;BME280;53654;54.152;19.432;2023-06-22T02:30:36;101627.28;;;19.63;85.02
66742;BME280;53654;54.152;19.432;2023-06-22T02:33:04;101631.94;;;19.61;85.14
66742;BME280;53654;54.152;19.432;2023-06-22T02:35:32;101627.06;;;19.59;85.41
66742;BME280;53654;54.152;19.432;2023-06-22T02:38:04;101628.35;;;19.57;85.40
66742;BME280;53654;54.152;19.432;2023-06-22T02:40:32;101630.70;;;19.56;85.35
66742;BME280;53654;54.152;19.432;2023-06-22T02:43:00;101631.33;;;19.53;85.39
66742;BME280;53654;54.152;19.432;2023-06-22T02:45:31;101634.23;;;19.50;85.37
66742;BME280;53654;54.152;19.432;2023-06-22T02:48:00;101634.22;;;19.50;85.35
66742;BME280;53654;54.152;19.432;2023-06-22T02:50:28;101630.00;;;19.49;85.37
66742;BME280;53654;54.152;19.432;2023-06-22T02:52:58;101632.66;;;19.49;85.27
66742;BME280;53654;54.152;19.432;2023-06-22T02:55:28;101643.77;;;19.50;85.07
66742;BME280;53654;54.152;19.432;2023-06-22T02:57:58;101647.31;;;19.50;84.99
66742;BME280;53654;54.152;19.432;2023-06-22T03:00:31;101648.03;;;19.50;84.96
66742;BME280;53654;54.152;19.432;2023-06-22T03:02:59;101643.59;;;19.50;84.93
66742;BME280;53654;54.152;19.432;2023-06-22T03:05:29;101645.16;;;19.51;84.76
66742;BME280;53654;54.152;19.432;2023-06-22T03:07:58;101646.91;;;19.52;84.51
66742;BME280;53654;54.152;19.432;2023-06-22T03:10:27;101653.59;;;19.54;84.46
66742;BME280;53654;54.152;19.432;2023-06-22T03:12:56;101654.63;;;19.54;84.23
66742;BME280;53654;54.152;19.432;2023-06-22T03:15:24;101658.13;;;19.56;84.25
66742;BME280;53654;54.152;19.432;2023-06-22T03:17:55;101665.70;;;19.57;84.04
66742;BME280;53654;54.152;19.432;2023-06-22T03:20:25;101670.52;;;19.61;83.72
66742;BME280;53654;54.152;19.432;2023-06-22T03:22:55;101668.07;;;19.67;83.67
66742;BME280;53654;54.152;19.432;2023-06-22T03:25:23;101670.02;;;19.72;83.04
66742;BME280;53654;54.152;19.432;2023-06-22T03:27:52;101675.48;;;19.78;82.83
66742;BME280;53654;54.152;19.432;2023-06-22T03:30:21;101672.83;;;19.84;82.30
66742;BME280;53654;54.152;19.432;2023-06-22T03:32:49;101667.58;;;19.87;81.73
66742;BME280;53654;54.152;19.432;2023-06-22T03:35:17;101660.75;;;19.90;81.32
66742;BME280;53654;54.152;19.432;2023-06-22T03:37:46;101656.23;;;19.93;81.07
66742;BME280;53654;54.152;19.432;2023-06-22T03:40:14;101661.16;;;19.94;80.74
66742;BME280;53654;54.152;19.432;2023-06-22T03:42:43;101666.54;;;19.97;80.68
66742;BME280;53654;54.152;19.432;2023-06-22T03:45:11;101668.52;;;20.02;80.45
66742;BME280;53654;54.152;19.432;2023-06-22T03:47:39;101678.77;;;20.18;80.27
66742;BME280;53654;54.152;19.432;2023-06-22T03:50:08;101685.30;;;20.46;79.18
66742;BME280;53654;54.152;19.432;2023-06-22T03:52:36;101690.21;;;20.77;77.63
66742;BME280;53654;54.152;19.432;2023-06-22T03:55:05;101690.47;;;21.14;76.12
66742;BME280;53654;54.152;19.432;2023-06-22T03:57:34;101692.44;;;21.52;74.20
66742;BME280;53654;54.152;19.432;2023-06-22T04:00:03;101695.96;;;21.88;72.38
66742;BME280;53654;54.152;19.432;2023-06-22T04:02:42;101696.48;;;22.23;71.10
66742;BME280;53654;54.152;19.432;2023-06-22T04:05:10;101697.86;;;22.57;69.35
66742;BME280;53654;54.152;19.432;2023-06-22T04:07:38;101699.11;;;22.73;68.14
66742;BME280;53654;54.152;19.432;2023-06-22T04:10:08;101694.25;;;22.79;67.69
66742;BME280;53654;54.152;19.432;2023-06-22T04:12:39;101697.31;;;22.78;67.46
66742;BME280;53654;54.152;19.432;2023-06-22T04:15:08;101702.67;;;22.73;67.24
66742;BME280;53654;54.152;19.432;2023-06-22T04:17:37;101703.17;;;22.62;67.16
66742;BME280;53654;54.152;19.432;2023-06-22T04:20:06;101704.69;;;22.52;67.81
66742;BME280;53654;54.152;19.432;2023-06-22T04:22:34;101703.44;;;22.39;68.01
66742;BME280;53654;54.152;19.432;2023-06-22T04:25:03;101707.79;;;22.25;68.37
66742;BME280;53654;54.152;19.432;2023-06-22T04:27:31;101707.42;;;22.08;68.75
66742;BME280;53654;54.152;19.432;2023-06-22T04:30:00;101709.72;;;21.94;69.60
66742;BME280;53654;54.152;19.432;2023-06-22T04:32:28;101712.21;;;21.81;69.90
66742;BME280;53654;54.152;19.432;2023-06-22T04:34:56;101712.77;;;21.68;70.37
66742;BME280;53654;54.152;19.432;2023-06-22T04:37:24;101721.40;;;21.60;71.19
66742;BME280;53654;54.152;19.432;2023-06-22T04:39:52;101725.26;;;21.52;71.64
66742;BME280;53654;54.152;19.432;2023-06-22T04:42:21;101728.00;;;21.45;71.97
66742;BME280;53654;54.152;19.432;2023-06-22T04:44:49;101734.11;;;21.39;72.48
66742;BME280;53654;54.152;19.432;2023-06-22T04:47:17;101743.00;;;21.34;72.61
66742;BME280;53654;54.152;19.432;2023-06-22T04:49:46;101739.20;;;21.26;72.54
66742;BME280;53654;54.152;19.432;2023-06-22T04:52:15;101739.48;;;21.18;72.89
66742;BME280;53654;54.152;19.432;2023-06-22T04:54:45;101731.30;;;21.09;73.33
66742;BME280;53654;54.152;19.432;2023-06-22T04:57:23;101722.17;;;21.01;73.56
66742;BME280;53654;54.152;19.432;2023-06-22T04:59:59;101717.43;;;20.95;74.01
66742;BME280;53654;54.152;19.432;2023-06-22T05:02:39;101719.55;;;20.90;74.26
66742;BME280;53654;54.152;19.432;2023-06-22T05:05:08;101725.38;;;20.86;74.59
66742;BME280;53654;54.152;19.432;2023-06-22T05:07:45;101728.15;;;20.83;74.85
66742;BME280;53654;54.152;19.432;2023-06-22T05:10:16;101725.52;;;20.82;75.25
66742;BME280;53654;54.152;19.432;2023-06-22T05:12:46;101728.56;;;20.86;75.53
66742;BME280;53654;54.152;19.432;2023-06-22T05:15:14;101728.56;;;20.96;75.90
66742;BME280;53654;54.152;19.432;2023-06-22T05:17:43;101731.45;;;21.20;75.21
66742;BME280;53654;54.152;19.432;2023-06-22T05:20:13;101729.81;;;21.49;74.41
66742;BME280;53654;54.152;19.432;2023-06-22T05:22:41;101725.86;;;21.78;73.30
66742;BME280;53654;54.152;19.432;2023-06-22T05:25:11;101727.66;;;22.08;72.29
66742;BME280;53654;54.152;19.432;2023-06-22T05:27:39;101719.83;;;22.30;70.89
66742;BME280;53654;54.152;19.432;2023-06-22T05:30:09;101719.58;;;22.44;70.29
66742;BME280;53654;54.152;19.432;2023-06-22T05:32:37;101724.86;;;22.50;69.72
66742;BME280;53654;54.152;19.432;2023-06-22T05:35:06;101723.20;;;22.51;69.76
66742;BME280;53654;54.152;19.432;2023-06-22T05:37:34;101723.09;;;22.49;69.58
66742;BME280;53654;54.152;19.432;2023-06-22T05:40:02;101727.64;;;22.47;69.49
66742;BME280;53654;54.152;19.432;2023-06-22T05:42:31;101737.60;;;22.47;69.56
66742;BME280;53654;54.152;19.432;2023-06-22T05:44:59;101739.92;;;22.42;69.70
66742;BME280;53654;54.152;19.432;2023-06-22T05:47:27;101743.23;;;22.40;69.81
66742;BME280;53654;54.152;19.432;2023-06-22T05:49:56;101745.14;;;22.41;69.53
66742;BME280;53654;54.152;19.432;2023-06-22T05:52:24;101746.80;;;22.40;69.44
66742;BME280;53654;54.152;19.432;2023-06-22T05:54:52;101748.83;;;22.46;69.24
66742;BME280;53654;54.152;19.432;2023-06-22T05:57:20;101752.30;;;22.48;69.18
66742;BME280;53654;54.152;19.432;2023-06-22T05:59:49;101753.96;;;22.47;69.29
66742;BME280;53654;54.152;19.432;2023-06-22T06:02:17;101755.35;;;22.43;69.19
66742;BME280;53654;54.152;19.432;2023-06-22T06:04:46;101761.77;;;22.35;68.98
66742;BME280;53654;54.152;19.432;2023-06-22T06:07:14;101762.64;;;22.22;69.54
66742;BME280;53654;54.152;19.432;2023-06-22T06:09:42;101759.88;;;22.07;70.06
66742;BME280;53654;54.152;19.432;2023-06-22T06:12:10;101765.61;;;21.96;70.49
66742;BME280;53654;54.152;19.432;2023-06-22T06:14:39;101777.98;;;21.88;70.60
66742;BME280;53654;54.152;19.432;2023-06-22T06:17:07;101776.36;;;21.81;70.65
66742;BME280;53654;54.152;19.432;2023-06-22T06:19:35;101773.86;;;21.76;70.82
66742;BME280;53654;54.152;19.432;2023-06-22T06:22:03;101773.22;;;21.70;70.59
66742;BME280;53654;54.152;19.432;2023-06-22T06:24:31;101772.52;;;21.65;70.73
66742;BME280;53654;54.152;19.432;2023-06-22T06:26:59;101769.52;;;21.65;70.89
66742;BME280;53654;54.152;19.432;2023-06-22T06:29:28;101769.73;;;21.73;70.63
66742;BME280;53654;54.152;19.432;2023-06-22T06:31:56;101768.02;;;21.84;69.90
66742;BME280;53654;54.152;19.432;2023-06-22T06:34:24;101769.42;;;21.94;69.22
66742;BME280;53654;54.152;19.432;2023-06-22T06:36:53;101766.92;;;22.04;68.56
66742;BME280;53654;54.152;19.432;2023-06-22T06:39:21;101767.01;;;22.06;67.75
66742;BME280;53654;54.152;19.432;2023-06-22T06:41:49;101768.39;;;22.07;67.42
66742;BME280;53654;54.152;19.432;2023-06-22T06:44:18;101768.54;;;22.08;67.07
66742;BME280;53654;54.152;19.432;2023-06-22T06:46:46;101761.84;;;22.07;66.76
66742;BME280;53654;54.152;19.432;2023-06-22T06:49:14;101762.27;;;22.05;66.62
66742;BME280;53654;54.152;19.432;2023-06-22T06:51:42;101762.73;;;22.02;66.30
66742;BME280;53654;54.152;19.432;2023-06-22T06:54:10;101759.13;;;21.98;66.44
66742;BME280;53654;54.152;19.432;2023-06-22T06:56:38;101762.70;;;21.98;66.56
66742;BME280;53654;54.152;19.432;2023-06-22T06:59:06;101767.70;;;22.02;66.39
66742;BME280;53654;54.152;19.432;2023-06-22T07:01:34;101762.85;;;21.99;66.29
66742;BME280;53654;54.152;19.432;2023-06-22T07:04:04;101762.06;;;21.96;66.14
66742;BME280;53654;54.152;19.432;2023-06-22T07:06:32;101761.25;;;22.04;65.56
66742;BME280;53654;54.152;19.432;2023-06-22T07:09:01;101761.23;;;22.22;64.78
66742;BME280;53654;54.152;19.432;2023-06-22T07:11:31;101763.66;;;22.49;64.20
66742;BME280;53654;54.152;19.432;2023-06-22T07:13:59;101769.84;;;22.87;63.42
66742;BME280;53654;54.152;19.432;2023-06-22T07:16:29;101768.75;;;23.40;62.75
66742;BME280;53654;54.152;19.432;2023-06-22T07:18:59;101771.89;;;23.91;61.14
66742;BME280;53654;54.152;19.432;2023-06-22T07:21:28;101776.79;;;24.40;59.33
66742;BME280;53654;54.152;19.432;2023-06-22T07:23:56;101782.33;;;24.89;57.35
66742;BME280;53654;54.152;19.432;2023-06-22T07:26:24;101788.28;;;25.22;55.84
66742;BME280;53654;54.152;19.432;2023-06-22T07:28:52;101789.45;;;25.50;53.95
66742;BME280;53654;54.152;19.432;2023-06-22T07:31:21;101784.58;;;25.68;53.06
66742;BME280;53654;54.152;19.432;2023-06-22T07:33:49;101777.61;;;25.90;52.39
66742;BME280;53654;54.152;19.432;2023-06-22T07:36:18;101775.67;;;26.09;51.42
66742;BME280;53654;54.152;19.432;2023-06-22T07:38:46;101783.77;;;26.30;51.01
66742;BME280;53654;54.152;19.432;2023-06-22T07:41:14;101792.10;;;26.50;50.20
66742;BME280;53654;54.152;19.432;2023-06-22T07:43:42;101796.83;;;26.58;49.20
66742;BME280;53654;54.152;19.432;2023-06-22T07:46:11;101795.64;;;26.56;49.36
66742;BME280;53654;54.152;19.432;2023-06-22T07:48:39;101798.22;;;26.52;49.44
66742;BME280;53654;54.152;19.432;2023-06-22T07:51:08;101797.18;;;26.45;49.60
66742;BME280;53654;54.152;19.432;2023-06-22T07:53:36;101799.27;;;26.43;49.51
66742;BME280;53654;54.152;19.432;2023-06-22T07:56:04;101804.35;;;26.42;49.15
66742;BME280;53654;54.152;19.432;2023-06-22T07:58:35;101805.05;;;26.30;49.20
66742;BME280;53654;54.152;19.432;2023-06-22T08:01:03;101806.29;;;26.21;49.74
66742;BME280;53654;54.152;19.432;2023-06-22T08:03:32;101814.23;;;26.13;49.69
66742;BME280;53654;54.152;19.432;2023-06-22T08:06:00;101816.20;;;26.07;49.40
66742;BME280;53654;54.152;19.432;2023-06-22T08:08:29;101811.65;;;25.98;49.64
66742;BME280;53654;54.152;19.432;2023-06-22T08:10:57;101814.25;;;26.00;49.62
66742;BME280;53654;54.152;19.432;2023-06-22T08:13:26;101823.61;;;26.06;48.58
66742;BME280;53654;54.152;19.432;2023-06-22T08:15:54;101827.84;;;25.96;48.10
66742;BME280;53654;54.152;19.432;2023-06-22T08:18:22;101825.02;;;25.83;48.15
66742;BME280;53654;54.152;19.432;2023-06-22T08:20:50;101828.63;;;25.72;48.19
66742;BME280;53654;54.152;19.432;2023-06-22T08:23:18;101835.21;;;25.66;48.42
66742;BME280;53654;54.152;19.432;2023-06-22T08:25:46;101834.90;;;25.62;47.93
66742;BME280;53654;54.152;19.432;2023-06-22T08:28:16;101832.64;;;25.54;48.39
66742;BME280;53654;54.152;19.432;2023-06-22T08:30:44;101830.31;;;25.51;48.80
66742;BME280;53654;54.152;19.432;2023-06-22T08:33:13;101835.57;;;25.46;48.76
66742;BME280;53654;54.152;19.432;2023-06-22T08:35:49;101835.39;;;25.39;48.74
66742;BME280;53654;54.152;19.432;2023-06-22T08:38:18;101841.27;;;25.36;48.52
66742;BME280;53654;54.152;19.432;2023-06-22T08:40:46;101847.74;;;25.32;48.25
66742;BME280;53654;54.152;19.432;2023-06-22T08:43:15;101843.31;;;25.35;48.00
66742;BME280;53654;54.152;19.432;2023-06-22T08:45:43;101839.39;;;25.42;48.49
66742;BME280;53654;54.152;19.432;2023-06-22T08:48:12;101836.41;;;25.61;48.67
66742;BME280;53654;54.152;19.432;2023-06-22T08:50:40;101833.48;;;25.88;48.82
66742;BME280;53654;54.152;19.432;2023-06-22T08:53:09;101839.48;;;26.19;48.01
66742;BME280;53654;54.152;19.432;2023-06-22T08:55:37;101833.77;;;26.44;47.52
66742;BME280;53654;54.152;19.432;2023-06-22T08:58:05;101830.39;;;26.68;46.74
66742;BME280;53654;54.152;19.432;2023-06-22T09:00:34;101829.83;;;26.98;46.70
66742;BME280;53654;54.152;19.432;2023-06-22T09:03:03;101826.30;;;27.27;45.53
66742;BME280;53654;54.152;19.432;2023-06-22T09:05:31;101822.43;;;27.49;44.13
66742;BME280;53654;54.152;19.432;2023-06-22T09:08:00;101822.23;;;27.61;44.30
66742;BME280;53654;54.152;19.432;2023-06-22T09:10:28;101825.46;;;27.78;44.29
66742;BME280;53654;54.152;19.432;2023-06-22T09:12:57;101830.14;;;27.91;43.88
66742;BME280;53654;54.152;19.432;2023-06-22T09:15:25;101837.85;;;27.97;43.41
66742;BME280;53654;54.152;19.432;2023-06-22T09:17:53;101830.66;;;28.01;42.77
66742;BME280;53654;54.152;19.432;2023-06-22T09:20:22;101832.44;;;27.95;42.99
66742;BME280;53654;54.152;19.432;2023-06-22T09:22:50;101831.05;;;27.94;43.77
66742;BME280;53654;54.152;19.432;2023-06-22T09:25:18;101827.64;;;28.00;43.88
66742;BME280;53654;54.152;19.432;2023-06-22T09:27:48;101821.59;;;28.02;43.28
66742;BME280;53654;54.152;19.432;2023-06-22T09:30:16;101813.47;;;28.06;43.42
66742;BME280;53654;54.152;19.432;2023-06-22T09:32:44;101816.92;;;28.10;43.63
66742;BME280;53654;54.152;19.432;2023-06-22T09:35:12;101821.16;;;28.06;42.67
66742;BME280;53654;54.152;19.432;2023-06-22T09:37:41;101821.83;;;27.95;43.08
66742;BME280;53654;54.152;19.432;2023-06-22T09:40:10;101822.48;;;27.85;43.22
66742;BME280;53654;54.152;19.432;2023-06-22T09:42:41;101819.09;;;27.71;43.29
66742;BME280;53654;54.152;19.432;2023-06-22T09:45:10;101820.36;;;27.62;43.70
66742;BME280;53654;54.152;19.432;2023-06-22T09:47:38;101828.45;;;27.53;44.08
66742;BME280;53654;54.152;19.432;2023-06-22T09:50:06;101822.50;;;27.48;44.86
66742;BME280;53654;54.152;19.432;2023-06-22T09:52:34;101817.80;;;27.46;44.73
66742;BME280;53654;54.152;19.432;2023-06-22T09:55:15;101821.81;;;27.42;44.54
66742;BME280;53654;54.152;19.432;2023-06-22T09:57:44;101817.05;;;27.44;44.84
66742;BME280;53654;54.152;19.432;2023-06-22T10:00:14;101825.25;;;27.50;44.58
66742;BME280;53654;54.152;19.432;2023-06-22T10:02:43;101821.64;;;27.44;44.16
66742;BME280;53654;54.152;19.432;2023-06-22T10:05:12;101826.88;;;27.41;44.71
66742;BME280;53654;54.152;19.432;2023-06-22T10:07:41;101832.00;;;27.37;44.42
66742;BME280;53654;54.152;19.432;2023-06-22T10:10:12;101837.18;;;27.34;44.15
66742;BME280;53654;54.152;19.432;2023-06-22T10:12:47;101841.20;;;27.36;44.51
66742;BME280;53654;54.152;19.432;2023-06-22T10:15:16;101834.30;;;27.37;44.11
66742;BME280;53654;54.152;19.432;2023-06-22T10:17:45;101833.29;;;27.36;44.00
66742;BME280;53654;54.152;19.432;2023-06-22T10:20:14;101835.30;;;27.33;44.32
66742;BME280;53654;54.152;19.432;2023-06-22T10:22:44;101827.27;;;27.28;44.42
66742;BME280;53654;54.152;19.432;2023-06-22T10:25:13;101831.26;;;27.22;44.32
66742;BME280;53654;54.152;19.432;2023-06-22T10:27:42;101827.56;;;27.06;44.42
66742;BME280;53654;54.152;19.432;2023-06-22T10:30:11;101825.63;;;26.94;45.07
66742;BME280;53654;54.152;19.432;2023-06-22T10:32:42;101826.15;;;26.85;45.58
66742;BME280;53654;54.152;19.432;2023-06-22T10:35:11;101822.44;;;26.84;46.08
66742;BME280;53654;54.152;19.432;2023-06-22T10:37:45;101823.44;;;26.88;45.65
66742;BME280;53654;54.152;19.432;2023-06-22T10:40:17;101825.58;;;26.83;45.83
66742;BME280;53654;54.152;19.432;2023-06-22T10:42:46;101822.77;;;26.70;45.56
66742;BME280;53654;54.152;19.432;2023-06-22T10:45:14;101823.63;;;26.52;45.82
66742;BME280;53654;54.152;19.432;2023-06-22T10:47:43;101823.10;;;26.33;46.48
66742;BME280;53654;54.152;19.432;2023-06-22T10:50:11;101827.59;;;26.14;46.77
66742;BME280;53654;54.152;19.432;2023-06-22T10:52:40;101834.64;;;25.96;46.94
66742;BME280;53654;54.152;19.432;2023-06-22T10:55:10;101827.56;;;25.82;47.47
66742;BME280;53654;54.152;19.432;2023-06-22T10:57:38;101826.52;;;25.72;47.77
66742;BME280;53654;54.152;19.432;2023-06-22T11:00:12;101828.08;;;25.66;48.11
66742;BME280;53654;54.152;19.432;2023-06-22T11:02:42;101831.17;;;25.65;48.20
66742;BME280;53654;54.152;19.432;2023-06-22T11:05:10;101829.50;;;25.66;48.39
66742;BME280;53654;54.152;19.432;2023-06-22T11:07:42;101826.80;;;25.67;48.30
66742;BME280;53654;54.152;19.432;2023-06-22T11:10:15;101823.14;;;25.65;48.01
66742;BME280;53654;54.152;19.432;2023-06-22T11:12:44;101821.23;;;25.63;48.21
66742;BME280;53654;54.152;19.432;2023-06-22T11:15:12;101824.02;;;25.58;48.29
66742;BME280;53654;54.152;19.432;2023-06-22T11:17:40;101820.36;;;25.57;48.10
66742;BME280;53654;54.152;19.432;2023-06-22T11:20:09;101818.36;;;25.57;48.32
66742;BME280;53654;54.152;19.432;2023-06-22T11:22:41;101820.36;;;25.53;48.14
66742;BME280;53654;54.152;19.432;2023-06-22T11:25:09;101822.52;;;25.47;48.31
66742;BME280;53654;54.152;19.432;2023-06-22T11:27:39;101814.73;;;25.42;48.36
66742;BME280;53654;54.152;19.432;2023-06-22T11:30:08;101822.42;;;25.38;48.37
66742;BME280;53654;54.152;19.432;2023-06-22T11:32:36;101815.36;;;25.37;48.47
66742;BME280;53654;54.152;19.432;2023-06-22T11:35:05;101813.89;;;25.37;48.61
66742;BME280;53654;54.152;19.432;2023-06-22T11:37:33;101815.16;;;25.37;48.55
66742;BME280;53654;54.152;19.432;2023-06-22T11:40:02;101814.46;;;25.33;48.38
66742;BME280;53654;54.152;19.432;2023-06-22T11:42:35;101814.55;;;25.28;48.90
66742;BME280;53654;54.152;19.432;2023-06-22T11:45:05;101815.05;;;25.32;49.44
66742;BME280;53654;54.152;19.432;2023-06-22T11:47:33;101816.03;;;25.37;49.39
66742;BME280;53654;54.152;19.432;2023-06-22T11:50:02;101811.98;;;25.39;48.79
66742;BME280;53654;54.152;19.432;2023-06-22T11:52:31;101808.92;;;25.44;48.80
66742;BME280;53654;54.152;19.432;2023-06-22T11:54:59;101809.86;;;25.46;48.78
66742;BME280;53654;54.152;19.432;2023-06-22T11:57:28;101816.54;;;25.48;48.87
66742;BME280;53654;54.152;19.432;2023-06-22T11:59:56;101814.96;;;25.44;48.56
66742;BME280;53654;54.152;19.432;2023-06-22T12:02:24;101809.12;;;25.40;48.40
66742;BME280;53654;54.152;19.432;2023-06-22T12:04:52;101806.04;;;25.37;48.80
66742;BME280;53654;54.152;19.432;2023-06-22T12:07:23;101802.80;;;25.37;49.09
66742;BME280;53654;54.152;19.432;2023-06-22T12:09:51;101808.79;;;25.46;49.00
66742;BME280;53654;54.152;19.432;2023-06-22T12:12:20;101804.20;;;25.52;48.70
66742;BME280;53654;54.152;19.432;2023-06-22T12:14:48;101805.31;;;25.61;48.63
66742;BME280;53654;54.152;19.432;2023-06-22T12:17:16;101807.73;;;25.72;48.55
66742;BME280;53654;54.152;19.432;2023-06-22T12:19:44;101799.55;;;25.81;48.31
66742;BME280;53654;54.152;19.432;2023-06-22T12:22:12;101799.52;;;25.88;48.24
66742;BME280;53654;54.152;19.432;2023-06-22T12:24:40;101798.71;;;25.96;47.85
66742;BME280;53654;54.152;19.432;2023-06-22T12:27:08;101806.42;;;25.98;47.46
66742;BME280;53654;54.152;19.432;2023-06-22T12:29:38;101801.08;;;25.95;47.41
66742;BME280;53654;54.152;19.432;2023-06-22T12:32:07;101802.02;;;25.91;47.75
66742;BME280;53654;54.152;19.432;2023-06-22T12:34:35;101800.39;;;25.88;48.03
66742;BME280;53654;54.152;19.432;2023-06-22T12:37:03;101802.14;;;25.89;48.49
66742;BME280;53654;54.152;19.432;2023-06-22T12:39:32;101799.88;;;25.94;47.67
66742;BME280;53654;54.152;19.432;2023-06-22T12:42:01;101799.39;;;25.96;47.85
66742;BME280;53654;54.152;19.432;2023-06-22T12:44:29;101803.52;;;26.04;47.81
66742;BME280;53654;54.152;19.432;2023-06-22T12:46:57;101796.30;;;26.01;46.67
66742;BME280;53654;54.152;19.432;2023-06-22T12:49:25;101792.46;;;25.89;46.98
66742;BME280;53654;54.152;19.432;2023-06-22T12:51:53;101787.28;;;25.83;47.02
66742;BME280;53654;54.152;19.432;2023-06-22T12:54:21;101785.38;;;25.79;47.43